Decoded Metar for K20U ( in ) (IATA:) | Meteo·Mobile Aviation Weather
aviador You're here:

K20U Decoded Metar

in
Report Time2018-11-19 09:15:00
UTC Time2018-11-19 09:29:40
Flight Rules lifr LIFR
Wind350° at 06 kt
W.Rank350° ranks 21
Current wind is below 350° avg. (10.2)
Visibility4828 m
Phenomena:Light Snow
Clouds:Overcast 004 Hf
Ceiling400 ft
Temp-3°C
Dew Point-3°C (100% RH)
AAT-7.5°C
QNH1018 hPa
Raw Report
K20U 190915Z AUTO 35006KT 3SM -SN OVC004 M03/M03 A3007 RMK AO2=

Extra information for K20U:More info

Social comments